createdAt,value
2022-08-17T00:00:42.699Z,0.00
2022-08-17T00:01:51.754Z,0.00
2022-08-17T00:02:35.993Z,0.00
2022-08-17T00:03:33.885Z,0.00
2022-08-17T00:04:33.761Z,0.00
2022-08-17T00:05:33.696Z,0.00
2022-08-17T00:06:33.692Z,0.00
2022-08-17T00:07:33.642Z,0.00
2022-08-17T00:08:33.638Z,0.00
2022-08-17T00:09:33.666Z,0.00
2022-08-17T00:10:33.718Z,0.00
2022-08-17T00:11:33.633Z,0.00
2022-08-17T00:12:42.111Z,0.00
2022-08-17T00:13:33.665Z,0.00
2022-08-17T00:14:33.617Z,0.00
2022-08-17T00:15:33.580Z,0.00
2022-08-17T00:16:56.208Z,0.00
2022-08-17T00:17:33.606Z,0.00
2022-08-17T00:19:01.269Z,0.00
2022-08-17T00:19:33.493Z,0.00
2022-08-17T00:20:35.005Z,0.00
2022-08-17T00:21:57.933Z,0.00
2022-08-17T00:22:36.690Z,0.00
2022-08-17T00:23:33.513Z,0.00
2022-08-17T00:24:33.489Z,0.00
2022-08-17T00:25:33.438Z,0.00
2022-08-17T00:26:34.569Z,0.00
2022-08-17T00:27:33.497Z,0.00
2022-08-17T00:28:33.467Z,0.00
2022-08-17T00:29:33.455Z,0.00
2022-08-17T00:30:50.940Z,0.00
2022-08-17T00:31:33.421Z,0.00
2022-08-17T00:33:22.893Z,0.00
2022-08-17T00:33:33.433Z,0.00
2022-08-17T00:34:33.371Z,0.00
2022-08-17T00:35:33.417Z,0.00
2022-08-17T00:36:33.346Z,0.00
2022-08-17T00:37:33.360Z,0.00
2022-08-17T00:38:33.383Z,0.00
2022-08-17T00:39:33.463Z,0.00
2022-08-17T00:40:39.829Z,0.00
2022-08-17T00:41:33.288Z,0.00
2022-08-17T00:42:33.271Z,0.00
2022-08-17T00:43:33.317Z,0.00
2022-08-17T00:44:33.255Z,0.00
2022-08-17T00:45:33.263Z,0.00
2022-08-17T00:46:33.289Z,0.00
2022-08-17T00:47:33.266Z,0.00
2022-08-17T00:48:33.339Z,0.00
2022-08-17T00:49:33.231Z,0.00
2022-08-17T00:50:33.235Z,0.00
2022-08-17T00:51:33.234Z,0.00
2022-08-17T00:52:33.185Z,0.00
2022-08-17T00:53:33.211Z,0.00
2022-08-17T00:54:33.224Z,0.00
2022-08-17T00:55:33.274Z,0.00
2022-08-17T00:56:33.186Z,0.00
2022-08-17T00:57:33.144Z,0.00
2022-08-17T00:58:36.360Z,0.00
2022-08-17T00:59:33.127Z,0.00
2022-08-17T01:00:33.159Z,0.00
2022-08-17T01:01:33.160Z,0.00
2022-08-17T01:02:34.248Z,0.00
2022-08-17T01:03:33.115Z,0.00
2022-08-17T01:04:33.175Z,0.00
2022-08-17T01:05:33.092Z,0.00
2022-08-17T01:06:33.033Z,0.00
2022-08-17T01:07:33.027Z,0.00
2022-08-17T01:08:33.086Z,0.00
2022-08-17T01:09:33.134Z,0.00
2022-08-17T01:10:58.299Z,0.00
2022-08-17T01:11:33.063Z,0.00
2022-08-17T01:12:33.111Z,0.00
2022-08-17T01:13:39.615Z,0.00
2022-08-17T01:14:33.090Z,0.00
2022-08-17T01:15:32.988Z,0.00
2022-08-17T01:16:32.995Z,0.00
2022-08-17T01:17:32.957Z,0.00
2022-08-17T01:18:32.940Z,0.00
2022-08-17T01:19:32.914Z,0.00
2022-08-17T01:20:43.114Z,0.00
2022-08-17T01:21:32.922Z,0.00
2022-08-17T01:22:32.928Z,0.00
2022-08-17T01:23:32.878Z,0.00
2022-08-17T01:24:33.857Z,0.00
2022-08-17T01:25:32.872Z,0.00
2022-08-17T01:26:32.940Z,0.00
2022-08-17T01:27:32.798Z,0.00
2022-08-17T01:28:53.052Z,0.00
2022-08-17T01:29:32.806Z,0.00
2022-08-17T01:30:58.420Z,0.00
2022-08-17T01:31:32.820Z,0.00
2022-08-17T01:32:32.785Z,0.00
2022-08-17T01:33:32.765Z,0.00
2022-08-17T01:34:42.089Z,0.00
2022-08-17T01:35:32.774Z,0.00
2022-08-17T01:36:32.767Z,0.00
2022-08-17T01:37:32.740Z,0.00
2022-08-17T01:38:32.705Z,0.00
2022-08-17T01:39:32.712Z,0.00
2022-08-17T01:40:32.671Z,0.00
2022-08-17T01:41:32.733Z,0.00
2022-08-17T01:42:32.638Z,0.00
2022-08-17T01:43:32.678Z,0.00
2022-08-17T01:44:32.699Z,0.00
2022-08-17T01:45:32.677Z,0.00
2022-08-17T01:46:32.583Z,0.00
2022-08-17T01:47:32.612Z,0.00
2022-08-17T01:48:32.583Z,0.00
2022-08-17T01:49:32.631Z,0.00
2022-08-17T01:50:32.570Z,0.00
2022-08-17T01:51:32.707Z,0.00
2022-08-17T01:52:32.587Z,0.00
2022-08-17T01:53:32.522Z,0.00
2022-08-17T01:54:32.534Z,0.00
2022-08-17T01:55:32.519Z,0.00
2022-08-17T01:56:32.508Z,0.00
2022-08-17T01:57:32.511Z,0.00
2022-08-17T01:58:32.474Z,0.00
2022-08-17T01:59:32.468Z,0.00
2022-08-17T02:00:59.665Z,0.00
2022-08-17T02:01:32.527Z,0.00
2022-08-17T02:02:32.458Z,0.00
2022-08-17T02:03:32.467Z,0.00
2022-08-17T02:04:32.461Z,0.00
2022-08-17T02:05:32.422Z,0.00
2022-08-17T02:06:52.894Z,0.00
2022-08-17T02:07:32.394Z,0.00
2022-08-17T02:08:36.875Z,0.00
2022-08-17T02:09:32.398Z,0.00
2022-08-17T02:10:33.847Z,0.00
2022-08-17T02:11:32.441Z,0.00
2022-08-17T02:12:47.940Z,0.00
2022-08-17T02:13:32.363Z,0.00
2022-08-17T02:14:32.339Z,0.00
2022-08-17T02:15:32.323Z,0.00
2022-08-17T02:16:36.838Z,0.00
2022-08-17T02:17:32.363Z,0.00
2022-08-17T02:18:32.299Z,0.00
2022-08-17T02:19:32.316Z,0.00
2022-08-17T02:20:42.244Z,0.00
2022-08-17T02:21:32.340Z,0.00
2022-08-17T02:22:32.280Z,0.00
2022-08-17T02:23:32.199Z,0.00
2022-08-17T02:24:59.900Z,0.00
2022-08-17T02:25:32.214Z,0.00
2022-08-17T02:26:32.202Z,0.00
2022-08-17T02:27:32.251Z,0.00
2022-08-17T02:28:32.209Z,0.00
2022-08-17T02:29:32.397Z,0.00
2022-08-17T02:31:00.719Z,0.00
2022-08-17T02:31:32.243Z,0.00
2022-08-17T02:32:32.124Z,0.00
2022-08-17T02:33:41.537Z,0.00
2022-08-17T02:34:32.173Z,0.00
2022-08-17T02:35:32.100Z,0.00
2022-08-17T02:36:32.072Z,0.00
2022-08-17T02:37:32.130Z,0.00
2022-08-17T02:38:32.106Z,0.00
2022-08-17T02:39:32.241Z,0.00
2022-08-17T02:40:36.232Z,0.00
2022-08-17T02:41:32.068Z,0.00
2022-08-17T02:42:32.066Z,0.00
2022-08-17T02:43:32.067Z,0.00
2022-08-17T02:44:39.737Z,0.00
2022-08-17T02:45:32.055Z,0.00
2022-08-17T02:46:32.038Z,0.00
2022-08-17T02:47:32.046Z,0.00
2022-08-17T02:48:32.140Z,0.00
2022-08-17T02:49:31.994Z,0.00
2022-08-17T02:50:31.914Z,0.00
2022-08-17T02:51:31.993Z,0.00
2022-08-17T02:52:40.525Z,0.00
2022-08-17T02:53:35.618Z,0.00
2022-08-17T02:54:39.764Z,0.00
2022-08-17T02:55:31.877Z,0.00
2022-08-17T02:56:31.857Z,0.00
2022-08-17T02:57:31.844Z,0.00
2022-08-17T02:58:35.341Z,0.00
2022-08-17T02:59:31.870Z,0.00
2022-08-17T03:00:31.838Z,0.00
2022-08-17T03:01:31.839Z,0.00
2022-08-17T03:02:31.896Z,0.00
2022-08-17T03:03:31.861Z,0.00
2022-08-17T03:04:33.780Z,0.00
2022-08-17T03:05:31.839Z,0.00
2022-08-17T03:06:31.778Z,0.00
2022-08-17T03:07:31.759Z,0.00
2022-08-17T03:08:31.823Z,0.00
2022-08-17T03:09:31.803Z,0.00
2022-08-17T03:10:31.788Z,0.00
2022-08-17T03:11:31.734Z,0.00
2022-08-17T03:12:31.720Z,0.00
2022-08-17T03:13:31.728Z,0.00
2022-08-17T03:14:31.740Z,0.00
2022-08-17T03:15:31.669Z,0.00
2022-08-17T03:16:31.713Z,0.00
2022-08-17T03:17:31.682Z,0.00
2022-08-17T03:18:31.676Z,0.00
2022-08-17T03:19:31.635Z,0.00
2022-08-17T03:20:31.640Z,0.00
2022-08-17T03:21:31.624Z,0.00
2022-08-17T03:22:36.694Z,0.00
2022-08-17T03:23:31.633Z,0.00
2022-08-17T03:24:31.651Z,0.00
2022-08-17T03:25:31.607Z,0.00
2022-08-17T03:26:31.557Z,0.00
2022-08-17T03:27:31.546Z,0.00
2022-08-17T03:28:31.609Z,0.00
2022-08-17T03:29:31.588Z,0.00
2022-08-17T03:30:31.728Z,0.00
2022-08-17T03:31:31.597Z,0.00
2022-08-17T03:32:31.566Z,0.00
2022-08-17T03:33:31.508Z,0.00
2022-08-17T03:34:31.545Z,0.00
2022-08-17T03:35:31.494Z,0.00
2022-08-17T03:36:31.512Z,0.00
2022-08-17T03:37:31.421Z,1.00
2022-08-17T03:38:39.198Z,0.00
2022-08-17T03:39:31.507Z,0.00
2022-08-17T03:40:55.579Z,1.00
2022-08-17T03:41:31.400Z,1.00
2022-08-17T03:42:32.981Z,1.00
2022-08-17T03:43:31.563Z,0.00
2022-08-17T03:44:31.467Z,0.00
2022-08-17T03:45:31.362Z,2.00
2022-08-17T03:46:34.997Z,1.00
2022-08-17T03:47:31.298Z,1.00
2022-08-17T03:48:31.331Z,0.00
2022-08-17T03:49:31.325Z,0.00
2022-08-17T03:50:31.314Z,5.00
2022-08-17T03:51:33.479Z,5.00
2022-08-17T03:52:31.327Z,4.00
2022-08-17T03:53:31.229Z,5.00
2022-08-17T03:54:31.234Z,2.00
2022-08-17T03:55:36.053Z,3.00
2022-08-17T03:56:31.247Z,8.00
2022-08-17T03:57:31.208Z,6.00
2022-08-17T03:58:31.227Z,7.00
2022-08-17T03:59:31.153Z,7.00
2022-08-17T04:00:31.166Z,5.00
2022-08-17T04:01:31.203Z,6.00
2022-08-17T04:02:31.131Z,8.00
2022-08-17T04:03:31.081Z,10.00
2022-08-17T04:04:31.148Z,12.00
2022-08-17T04:05:31.127Z,14.00
2022-08-17T04:06:31.138Z,16.00
2022-08-17T04:07:31.094Z,18.00
2022-08-17T04:08:31.033Z,18.00
2022-08-17T04:09:31.048Z,26.00
2022-08-17T04:10:31.050Z,28.00
2022-08-17T04:11:31.126Z,24.00
2022-08-17T04:12:31.385Z,26.00
2022-08-17T04:13:31.003Z,35.00
2022-08-17T04:14:31.081Z,37.00
2022-08-17T04:15:31.025Z,42.00
2022-08-17T04:16:30.989Z,48.00
2022-08-17T04:17:31.001Z,52.00
2022-08-17T04:18:30.992Z,58.00
2022-08-17T04:19:30.950Z,57.00
2022-08-17T04:20:31.058Z,62.00
2022-08-17T04:21:31.060Z,64.00
2022-08-17T04:22:34.255Z,67.00
2022-08-17T04:23:30.952Z,67.00
2022-08-17T04:24:30.950Z,74.00
2022-08-17T04:25:30.907Z,77.00
2022-08-17T04:26:50.587Z,84.00
2022-08-17T04:27:31.009Z,98.00
2022-08-17T04:28:31.047Z,105.00
2022-08-17T04:29:54.238Z,108.00
2022-08-17T04:30:31.083Z,105.00
2022-08-17T04:31:30.984Z,109.00
2022-08-17T04:33:04.351Z,115.00
2022-08-17T04:33:30.840Z,119.00
2022-08-17T04:34:30.926Z,128.00
2022-08-17T04:35:30.957Z,136.00
2022-08-17T04:36:30.804Z,145.00
2022-08-17T04:37:30.808Z,154.00
2022-08-17T04:38:30.866Z,172.00
2022-08-17T04:39:32.872Z,178.00
2022-08-17T04:40:30.811Z,188.00
2022-08-17T04:41:30.743Z,198.00
2022-08-17T04:42:30.755Z,207.00
2022-08-17T04:43:30.736Z,223.00
2022-08-17T04:44:37.785Z,235.00
2022-08-17T04:45:32.118Z,248.00
2022-08-17T04:46:30.679Z,260.00
2022-08-17T04:47:30.763Z,279.00
2022-08-17T04:48:36.138Z,288.00
2022-08-17T04:49:30.701Z,301.00
2022-08-17T04:50:30.669Z,317.00
2022-08-17T04:51:30.654Z,337.00
2022-08-17T04:52:43.189Z,349.00
2022-08-17T04:53:30.657Z,365.00
2022-08-17T04:54:30.584Z,382.00
2022-08-17T04:55:30.595Z,392.00
2022-08-17T04:56:30.623Z,406.00
2022-08-17T04:57:30.556Z,408.00
2022-08-17T04:58:30.546Z,414.00
2022-08-17T04:59:30.576Z,416.00
2022-08-17T05:00:30.540Z,421.00
2022-08-17T05:01:30.628Z,435.00
2022-08-17T05:02:30.563Z,449.00
2022-08-17T05:03:30.710Z,456.00
2022-08-17T05:04:34.853Z,470.00
2022-08-17T05:05:30.547Z,481.00
2022-08-17T05:06:30.545Z,502.00
2022-08-17T05:07:31.728Z,522.00
2022-08-17T05:08:30.496Z,566.00
2022-08-17T05:09:30.482Z,637.00
2022-08-17T05:10:30.416Z,745.00
2022-08-17T05:11:30.489Z,844.00
2022-08-17T05:12:30.445Z,907.00
2022-08-17T05:13:30.560Z,941.00
2022-08-17T05:14:32.880Z,953.00
2022-08-17T05:15:33.194Z,962.00
2022-08-17T05:16:30.429Z,979.00
2022-08-17T05:17:30.415Z,998.00
2022-08-17T05:18:30.367Z,1011.00
2022-08-17T05:19:30.440Z,1024.00
2022-08-17T05:20:30.454Z,1026.00
2022-08-17T05:21:30.381Z,1019.00
2022-08-17T05:22:30.403Z,1025.00
2022-08-17T05:23:39.115Z,1038.00
2022-08-17T05:24:40.732Z,1031.00
2022-08-17T05:25:30.521Z,1029.00
2022-08-17T05:26:30.352Z,1022.00
2022-08-17T05:27:35.322Z,1006.00
2022-08-17T05:28:30.309Z,999.00
2022-08-17T05:29:34.298Z,973.00
2022-08-17T05:30:30.240Z,958.00
2022-08-17T05:31:30.233Z,953.00
2022-08-17T05:32:37.281Z,959.00
2022-08-17T05:33:30.297Z,960.00
2022-08-17T05:34:30.254Z,974.00
2022-08-17T05:35:30.432Z,975.00
2022-08-17T05:36:41.985Z,997.00
2022-08-17T05:37:30.275Z,1017.00
2022-08-17T05:38:30.221Z,1037.00
2022-08-17T05:39:30.277Z,1061.00
2022-08-17T05:40:32.944Z,1081.00
2022-08-17T05:41:30.174Z,1112.00
2022-08-17T05:42:30.178Z,1132.00
2022-08-17T05:43:30.202Z,1161.00
2022-08-17T05:44:30.122Z,1181.00
2022-08-17T05:45:54.438Z,1202.00
2022-08-17T05:46:30.196Z,1225.00
2022-08-17T05:47:30.063Z,1258.00
2022-08-17T05:48:39.745Z,1288.00
2022-08-17T05:49:30.079Z,1318.00
2022-08-17T05:50:30.298Z,1351.00
2022-08-17T05:51:30.190Z,1418.00
2022-08-17T05:52:30.093Z,1491.00
2022-08-17T05:53:30.357Z,1563.00
2022-08-17T05:54:30.023Z,1647.00
2022-08-17T05:55:30.005Z,1716.00
2022-08-17T05:56:30.642Z,1775.00
2022-08-17T05:57:29.964Z,1807.00
2022-08-17T05:58:30.026Z,1869.00
2022-08-17T05:59:29.918Z,1910.00
2022-08-17T06:00:31.022Z,1956.00
2022-08-17T06:01:30.001Z,2001.00
2022-08-17T06:02:29.973Z,2042.00
2022-08-17T06:03:29.964Z,2088.00
2022-08-17T06:04:29.901Z,2119.00
2022-08-17T06:05:29.850Z,2164.00
2022-08-17T06:06:31.224Z,2232.00
2022-08-17T06:07:29.921Z,2258.00
2022-08-17T06:08:29.901Z,2291.00
2022-08-17T06:09:33.677Z,2294.00
2022-08-17T06:10:29.826Z,2336.00
2022-08-17T06:11:29.882Z,2366.00
2022-08-17T06:12:29.983Z,2410.00
2022-08-17T06:13:29.884Z,2402.00
2022-08-17T06:14:29.900Z,2422.00
2022-08-17T06:15:29.780Z,2445.00
2022-08-17T06:16:34.412Z,2475.00
2022-08-17T06:17:29.828Z,2516.00
2022-08-17T06:18:29.810Z,2605.00
2022-08-17T06:19:29.815Z,2670.00
2022-08-17T06:20:29.716Z,2698.00
2022-08-17T06:21:32.154Z,2758.00
2022-08-17T06:22:29.698Z,2828.00
2022-08-17T06:23:29.712Z,2935.00
2022-08-17T06:24:29.777Z,2990.00
2022-08-17T06:25:29.729Z,3131.00
2022-08-17T06:26:34.517Z,3213.00
2022-08-17T06:27:29.683Z,3244.00
2022-08-17T06:28:29.671Z,3268.00
2022-08-17T06:29:29.624Z,3262.00
2022-08-17T06:30:29.597Z,3340.00
2022-08-17T06:31:29.655Z,3373.00
2022-08-17T06:32:29.679Z,3339.00
2022-08-17T06:33:29.596Z,3325.00
2022-08-17T06:34:29.584Z,3420.00
2022-08-17T06:35:32.098Z,3408.00
2022-08-17T06:36:29.644Z,3632.00
2022-08-17T06:37:29.603Z,3675.00
2022-08-17T06:38:38.284Z,3773.00
2022-08-17T06:39:29.627Z,3727.00
2022-08-17T06:40:29.511Z,4009.00
2022-08-17T06:41:29.607Z,3964.00
2022-08-17T06:42:54.789Z,4021.00
2022-08-17T06:43:29.653Z,3997.00
2022-08-17T06:44:43.682Z,3896.00
2022-08-17T06:45:29.507Z,3911.00
2022-08-17T06:46:29.451Z,4082.00
2022-08-17T06:47:29.602Z,4345.00
2022-08-17T06:48:29.553Z,4067.00
2022-08-17T06:49:30.479Z,4066.00
2022-08-17T06:50:29.503Z,4091.00
2022-08-17T06:51:29.603Z,4257.00
2022-08-17T06:52:45.738Z,4205.00
2022-08-17T06:53:29.399Z,4292.00
2022-08-17T06:54:29.367Z,4506.00
2022-08-17T06:55:32.126Z,4533.00
2022-08-17T06:56:53.851Z,4647.00
2022-08-17T06:57:29.331Z,4414.00
2022-08-17T06:58:29.768Z,4606.00
2022-08-17T06:59:36.293Z,4643.00
2022-08-17T07:00:30.387Z,4294.00
2022-08-17T07:01:29.622Z,4368.00
2022-08-17T07:02:51.586Z,4314.00
2022-08-17T07:03:30.205Z,4278.00
2022-08-17T07:04:29.298Z,6109.00
2022-08-17T07:05:29.364Z,4258.00
2022-08-17T07:06:29.468Z,4057.00
2022-08-17T07:07:29.490Z,6637.00
2022-08-17T07:08:32.066Z,6105.00
2022-08-17T07:09:29.285Z,4382.00
2022-08-17T07:10:29.219Z,5238.00
2022-08-17T07:11:29.257Z,5627.00
2022-08-17T07:12:29.279Z,8669.00
2022-08-17T07:13:29.290Z,5372.00
2022-08-17T07:14:29.186Z,4995.00
2022-08-17T07:15:29.277Z,4526.00
2022-08-17T07:16:29.580Z,4150.00
2022-08-17T07:17:47.194Z,4275.00
2022-08-17T07:18:29.496Z,4216.00
2022-08-17T07:19:29.727Z,4000.00
2022-08-17T07:20:30.909Z,3891.00
2022-08-17T07:21:29.671Z,3853.00
2022-08-17T07:22:30.793Z,3767.00
2022-08-17T07:23:29.983Z,3679.00
2022-08-17T07:24:29.995Z,3591.00
2022-08-17T07:25:29.425Z,3450.00
2022-08-17T07:26:29.205Z,3474.00
2022-08-17T07:27:30.127Z,3365.00
2022-08-17T07:28:29.435Z,3336.00
2022-08-17T07:29:29.481Z,3310.00
2022-08-17T07:30:29.758Z,3277.00
2022-08-17T07:31:30.318Z,3282.00
2022-08-17T07:32:29.811Z,3249.00
2022-08-17T07:33:29.849Z,3170.00
2022-08-17T07:34:29.575Z,3042.00
2022-08-17T07:35:40.965Z,2905.00
2022-08-17T07:36:30.184Z,2862.00
2022-08-17T07:37:29.378Z,2846.00
2022-08-17T07:38:30.215Z,2819.00
2022-08-17T07:39:30.325Z,2799.00
2022-08-17T07:40:28.995Z,2909.00
2022-08-17T07:41:57.722Z,2828.00
2022-08-17T07:42:30.321Z,2678.00
2022-08-17T07:43:29.571Z,2620.00
2022-08-17T07:44:28.841Z,2576.00
2022-08-17T07:45:28.879Z,2505.00
2022-08-17T07:46:28.970Z,2592.00
2022-08-17T07:47:28.801Z,2583.00
2022-08-17T07:48:28.823Z,2511.00
2022-08-17T07:49:28.789Z,2474.00
2022-08-17T07:50:29.054Z,2444.00
2022-08-17T07:51:29.010Z,2444.00
2022-08-17T07:52:48.409Z,2441.00
2022-08-17T07:53:28.769Z,2452.00
2022-08-17T07:54:28.738Z,2572.00
2022-08-17T07:55:28.691Z,2676.00
2022-08-17T07:56:28.915Z,2717.00
2022-08-17T07:57:30.074Z,2715.00
2022-08-17T07:58:28.741Z,2575.00
2022-08-17T07:59:33.752Z,2566.00
2022-08-17T08:00:32.073Z,2641.00
2022-08-17T08:01:39.358Z,2613.00
2022-08-17T08:02:32.896Z,2657.00
2022-08-17T08:03:28.731Z,2621.00
2022-08-17T08:04:58.853Z,2626.00
2022-08-17T08:05:49.140Z,2606.00
2022-08-17T08:06:28.821Z,2588.00
2022-08-17T08:07:29.472Z,2566.00
2022-08-17T08:08:28.649Z,2542.00
2022-08-17T08:09:28.655Z,2543.00
2022-08-17T08:10:28.565Z,2519.00
2022-08-17T08:11:28.574Z,2481.00
2022-08-17T08:12:30.561Z,2449.00
2022-08-17T08:13:28.623Z,2421.00
2022-08-17T08:14:28.912Z,2403.00
2022-08-17T08:15:28.631Z,2394.00
2022-08-17T08:16:28.506Z,2367.00
2022-08-17T08:17:28.592Z,2367.00
2022-08-17T08:18:54.818Z,2310.00
2022-08-17T08:19:28.867Z,2335.00
2022-08-17T08:20:53.207Z,2352.00
2022-08-17T08:21:28.608Z,2409.00
2022-08-17T08:22:28.532Z,2410.00
2022-08-17T08:23:28.495Z,2451.00
2022-08-17T08:24:31.093Z,2638.00
2022-08-17T08:25:28.695Z,2846.00
2022-08-17T08:26:28.568Z,2819.00
2022-08-17T08:27:28.443Z,2965.00
2022-08-17T08:28:28.420Z,3048.00
2022-08-17T08:29:28.422Z,2989.00
2022-08-17T08:30:28.334Z,3012.00
2022-08-17T08:31:28.360Z,3064.00
2022-08-17T08:32:28.315Z,3113.00
2022-08-17T08:33:28.328Z,3225.00
2022-08-17T08:35:00.688Z,3534.00
2022-08-17T08:35:28.311Z,3374.00
2022-08-17T08:37:02.142Z,4266.00
2022-08-17T08:37:35.557Z,4065.00
2022-08-17T08:38:28.329Z,5947.00
2022-08-17T08:39:28.327Z,3808.00
2022-08-17T08:40:28.286Z,5690.00
2022-08-17T08:41:28.245Z,5158.00
2022-08-17T08:42:28.265Z,7847.00
2022-08-17T08:43:28.234Z,5831.00
2022-08-17T08:45:00.998Z,4491.00
2022-08-17T08:45:28.251Z,3348.00
2022-08-17T08:46:28.233Z,6439.00
2022-08-17T08:47:28.635Z,4665.00
2022-08-17T08:48:53.692Z,6776.00
2022-08-17T08:49:59.189Z,6463.00
2022-08-17T08:50:37.599Z,5162.00
2022-08-17T08:51:28.512Z,4606.00
2022-08-17T08:52:28.233Z,4143.00
2022-08-17T08:53:28.284Z,4530.00
2022-08-17T08:54:28.188Z,4420.00
2022-08-17T08:55:28.290Z,5165.00
2022-08-17T08:56:28.145Z,4644.00
2022-08-17T08:57:33.658Z,4270.00
2022-08-17T08:58:31.943Z,4292.00
2022-08-17T08:59:28.128Z,4189.00
2022-08-17T09:00:28.127Z,4670.00
2022-08-17T09:01:28.102Z,4544.00
2022-08-17T09:02:28.029Z,4313.00
2022-08-17T09:03:42.749Z,4278.00
2022-08-17T09:04:28.016Z,4096.00
2022-08-17T09:05:28.001Z,3902.00
2022-08-17T09:06:35.621Z,3783.00
2022-08-17T09:07:28.022Z,3611.00
2022-08-17T09:08:27.979Z,3486.00
2022-08-17T09:09:28.043Z,3430.00
2022-08-17T09:10:28.062Z,3362.00
2022-08-17T09:11:28.041Z,3316.00
2022-08-17T09:12:28.039Z,3258.00
2022-08-17T09:13:28.025Z,3194.00
2022-08-17T09:14:28.486Z,3128.00
2022-08-17T09:15:27.968Z,3045.00
2022-08-17T09:16:27.875Z,3037.00
2022-08-17T09:17:27.902Z,2965.00
2022-08-17T09:19:03.191Z,2956.00
2022-08-17T09:19:27.843Z,2885.00
2022-08-17T09:20:28.769Z,2869.00
2022-08-17T09:21:27.831Z,2847.00
2022-08-17T09:22:27.822Z,2790.00
2022-08-17T09:23:27.832Z,2719.00
2022-08-17T09:24:27.783Z,2629.00
2022-08-17T09:25:27.778Z,2534.00
2022-08-17T09:26:27.797Z,2449.00
2022-08-17T09:27:27.759Z,2409.00
2022-08-17T09:28:27.940Z,2401.00
2022-08-17T09:29:27.752Z,2407.00
2022-08-17T09:30:27.779Z,2452.00
2022-08-17T09:31:32.696Z,2528.00
2022-08-17T09:32:27.740Z,2565.00
2022-08-17T09:33:27.725Z,2591.00
2022-08-17T09:34:32.024Z,2737.00
2022-08-17T09:35:33.788Z,2817.00
2022-08-17T09:36:27.735Z,2906.00
2022-08-17T09:37:27.805Z,2962.00
2022-08-17T09:38:31.874Z,3017.00
2022-08-17T09:39:27.841Z,3016.00
2022-08-17T09:40:27.669Z,2970.00
2022-08-17T09:41:27.686Z,2888.00
2022-08-17T09:42:27.694Z,2882.00
2022-08-17T09:43:27.647Z,2852.00
2022-08-17T09:44:27.618Z,2819.00
2022-08-17T09:45:27.649Z,2763.00
2022-08-17T09:46:27.663Z,2692.00
2022-08-17T09:47:27.749Z,2638.00
2022-08-17T09:48:27.823Z,2568.00
2022-08-17T09:49:27.638Z,2488.00
2022-08-17T09:51:01.649Z,2398.00
2022-08-17T09:51:27.892Z,2331.00
2022-08-17T09:52:27.539Z,2263.00
2022-08-17T09:53:31.651Z,2231.00
2022-08-17T09:54:44.411Z,2189.00
2022-08-17T09:55:27.549Z,2144.00
2022-08-17T09:56:27.543Z,2152.00
2022-08-17T09:57:30.709Z,2147.00
2022-08-17T09:58:29.219Z,2167.00
2022-08-17T09:59:27.479Z,2268.00
2022-08-17T10:00:27.527Z,2444.00
2022-08-17T10:01:27.507Z,2548.00
2022-08-17T10:02:27.482Z,2663.00
2022-08-17T10:03:27.519Z,2842.00
2022-08-17T10:04:29.657Z,2977.00
2022-08-17T10:05:27.470Z,3073.00
2022-08-17T10:06:27.904Z,3072.00
2022-08-17T10:07:27.423Z,3032.00
2022-08-17T10:08:28.306Z,2934.00
2022-08-17T10:09:27.416Z,2817.00
2022-08-17T10:10:27.342Z,2726.00
2022-08-17T10:11:33.727Z,2622.00
2022-08-17T10:12:30.047Z,2577.00
2022-08-17T10:13:27.417Z,2556.00
2022-08-17T10:14:37.712Z,2512.00
2022-08-17T10:15:27.431Z,2491.00
2022-08-17T10:16:27.325Z,2449.00
2022-08-17T10:17:27.407Z,2360.00
2022-08-17T10:18:31.829Z,2264.00
2022-08-17T10:19:27.385Z,2208.00
2022-08-17T10:20:27.270Z,2154.00
2022-08-17T10:21:27.242Z,2116.00
2022-08-17T10:22:34.629Z,2179.00
2022-08-17T10:23:27.277Z,2258.00
2022-08-17T10:24:27.333Z,2325.00
2022-08-17T10:25:42.535Z,2500.00
2022-08-17T10:26:27.273Z,2552.00
2022-08-17T10:27:27.223Z,2569.00
2022-08-17T10:28:29.803Z,2585.00
2022-08-17T10:29:28.820Z,2487.00
2022-08-17T10:30:27.349Z,2463.00
2022-08-17T10:31:35.782Z,2419.00
2022-08-17T10:32:27.136Z,2375.00
2022-08-17T10:33:27.198Z,2355.00
2022-08-17T10:34:27.114Z,2374.00
2022-08-17T10:35:27.258Z,2426.00
2022-08-17T10:36:27.070Z,2513.00
2022-08-17T10:37:27.128Z,2577.00
2022-08-17T10:38:27.070Z,2660.00
2022-08-17T10:39:27.141Z,2727.00
2022-08-17T10:40:27.096Z,2806.00
2022-08-17T10:41:27.047Z,2882.00
2022-08-17T10:42:30.430Z,2964.00
2022-08-17T10:43:26.997Z,3041.00
2022-08-17T10:44:39.648Z,3077.00
2022-08-17T10:45:26.981Z,3084.00
2022-08-17T10:46:30.340Z,3002.00
2022-08-17T10:47:26.949Z,2907.00
2022-08-17T10:48:26.933Z,2796.00
2022-08-17T10:49:26.925Z,2635.00
2022-08-17T10:50:26.961Z,2453.00
2022-08-17T10:51:26.926Z,2312.00
2022-08-17T10:52:26.946Z,2178.00
2022-08-17T10:53:26.902Z,2100.00
2022-08-17T10:54:26.872Z,2016.00
2022-08-17T10:55:26.887Z,1961.00
2022-08-17T10:56:26.853Z,1882.00
2022-08-17T10:57:26.846Z,1842.00
2022-08-17T10:58:27.137Z,1816.00
2022-08-17T10:59:26.845Z,1792.00
2022-08-17T11:00:27.734Z,1787.00
2022-08-17T11:01:26.884Z,1785.00
2022-08-17T11:02:26.806Z,1787.00
2022-08-17T11:03:26.804Z,1816.00
2022-08-17T11:04:26.769Z,1823.00
2022-08-17T11:05:26.784Z,2029.00
2022-08-17T11:06:26.803Z,1942.00
2022-08-17T11:07:26.785Z,1957.00
2022-08-17T11:08:26.831Z,2004.00
2022-08-17T11:09:26.736Z,1994.00
2022-08-17T11:10:26.754Z,2005.00
2022-08-17T11:11:26.708Z,1977.00
2022-08-17T11:12:26.709Z,2056.00
2022-08-17T11:13:26.753Z,1929.00
2022-08-17T11:14:26.656Z,1955.00
2022-08-17T11:15:26.669Z,1943.00
2022-08-17T11:16:26.686Z,2004.00
2022-08-17T11:17:26.656Z,2083.00
2022-08-17T11:18:26.645Z,2106.00
2022-08-17T11:19:26.637Z,2287.00
2022-08-17T11:20:26.607Z,2229.00
2022-08-17T11:21:26.593Z,2208.00
2022-08-17T11:22:31.301Z,2190.00
2022-08-17T11:23:26.630Z,2129.00
2022-08-17T11:24:26.573Z,2003.00
2022-08-17T11:25:26.552Z,1934.00
2022-08-17T11:26:26.596Z,1857.00
2022-08-17T11:27:26.562Z,1782.00
2022-08-17T11:28:26.550Z,1738.00
2022-08-17T11:29:26.516Z,1728.00
2022-08-17T11:30:26.639Z,1665.00
2022-08-17T11:31:37.952Z,1635.00
2022-08-17T11:32:26.495Z,1557.00
2022-08-17T11:33:26.516Z,1562.00
2022-08-17T11:34:26.678Z,1534.00
2022-08-17T11:35:26.797Z,1505.00
2022-08-17T11:36:26.452Z,1488.00
2022-08-17T11:37:26.440Z,1464.00
2022-08-17T11:38:26.425Z,1380.00
2022-08-17T11:39:26.525Z,1473.00
2022-08-17T11:40:26.410Z,1442.00
2022-08-17T11:41:26.402Z,1356.00
2022-08-17T11:42:26.428Z,1280.00
2022-08-17T11:43:26.410Z,1329.00
2022-08-17T11:44:26.431Z,1339.00
2022-08-17T11:45:31.928Z,1348.00
2022-08-17T11:46:26.365Z,1318.00
2022-08-17T11:47:26.379Z,1290.00
2022-08-17T11:48:28.777Z,1260.00
2022-08-17T11:49:26.336Z,1273.00
2022-08-17T11:50:28.003Z,1234.00
2022-08-17T11:51:26.284Z,1212.00
2022-08-17T11:52:26.301Z,1250.00
2022-08-17T11:53:26.280Z,1178.00
2022-08-17T11:54:34.666Z,1275.00
2022-08-17T11:55:35.400Z,1180.00
2022-08-17T11:56:26.293Z,1117.00
2022-08-17T11:57:26.301Z,1209.00
2022-08-17T11:58:26.274Z,1194.00
2022-08-17T11:59:26.282Z,1154.00
2022-08-17T12:00:26.215Z,1155.00
2022-08-17T12:01:26.201Z,1168.00
2022-08-17T12:02:26.222Z,1100.00
2022-08-17T12:03:26.249Z,1062.00
2022-08-17T12:04:26.382Z,1083.00
2022-08-17T12:05:26.192Z,1010.00
2022-08-17T12:06:29.615Z,1104.00
2022-08-17T12:07:26.268Z,1040.00
2022-08-17T12:08:26.242Z,1007.00
2022-08-17T12:09:26.202Z,1028.00
2022-08-17T12:10:26.374Z,1033.00
2022-08-17T12:11:56.346Z,1027.00
2022-08-17T12:12:26.197Z,1050.00
2022-08-17T12:13:34.613Z,1047.00
2022-08-17T12:14:45.075Z,1082.00
2022-08-17T12:15:26.120Z,1144.00
2022-08-17T12:16:26.210Z,1225.00
2022-08-17T12:17:40.658Z,1305.00
2022-08-17T12:18:26.127Z,1388.00
2022-08-17T12:19:26.220Z,1479.00
2022-08-17T12:20:26.178Z,1597.00
2022-08-17T12:21:26.076Z,1749.00
2022-08-17T12:22:26.121Z,1884.00
2022-08-17T12:23:26.347Z,1949.00
2022-08-17T12:24:26.066Z,2139.00
2022-08-17T12:25:26.029Z,2143.00
2022-08-17T12:26:26.094Z,2116.00
2022-08-17T12:28:04.349Z,2036.00
2022-08-17T12:28:26.107Z,1992.00
2022-08-17T12:29:35.702Z,1871.00
2022-08-17T12:30:25.998Z,1738.00
2022-08-17T12:31:25.995Z,1706.00